Granby, Colorado
Current Conditions -  °F | °C
As of 3:30 AM on Saturday 25 Oct 2014 (Local Time) from K0CO Reporting Station
Clear Clear  
Wind Chill: 22°   Ceiling: Unl
Heat Index: 34°   Visibility: 10mi
Dew Point: 32°   Wind: 23mph
Humidity: 93%   Direction: 290°WNW
Pressure: 30.63"   Gusts: 29mph
Location:  40.09°N, 105.94°W
Report Text: K0CO 250930Z AUTO 29020G25KT 10SM CLR 01/00 A3063 RMK AO2
Loading
Personal Weather Stations






























Interactive Weather Map
Tropical Storm Tracking
New forecast layout! Learn more

10-Day Weather Forecast

Advertisements
Track Severe Weather on mobile